createdAt,value
2023-01-29T00:00:11.775Z,97760.97
2023-01-29T00:03:19.349Z,97768.06
2023-01-29T00:06:24.252Z,97779.28
2023-01-29T00:09:29.050Z,97771.69
2023-01-29T00:12:33.577Z,97773.94
2023-01-29T00:15:38.094Z,97761.09
2023-01-29T00:18:42.946Z,97774.94
2023-01-29T00:21:47.437Z,97776.25
2023-01-29T00:24:51.961Z,97769.63
2023-01-29T00:27:56.532Z,97771.50
2023-01-29T00:31:11.997Z,97772.09
2023-01-29T00:34:16.695Z,97769.91
2023-01-29T00:37:21.188Z,97764.00
2023-01-29T00:40:26.745Z,97770.47
2023-01-29T00:43:49.679Z,97772.84
2023-01-29T00:46:54.787Z,97761.88
2023-01-29T00:50:05.047Z,97766.94
2023-01-29T00:53:09.790Z,97775.59
2023-01-29T00:56:14.316Z,97763.06
2023-01-29T00:59:18.846Z,97765.50
2023-01-29T01:02:44.514Z,97715.28
2023-01-29T01:05:49.181Z,97767.59
2023-01-29T01:09:12.239Z,97757.47
2023-01-29T01:12:16.733Z,97764.56
2023-01-29T01:15:22.843Z,97762.31
2023-01-29T01:18:28.923Z,97758.81
2023-01-29T01:21:33.456Z,97763.56
2023-01-29T01:24:38.391Z,97769.09
2023-01-29T01:27:43.017Z,97767.44
2023-01-29T01:30:47.569Z,97761.28
2023-01-29T01:33:54.245Z,97763.13
2023-01-29T01:36:58.819Z,97767.06
2023-01-29T01:40:05.717Z,97773.31
2023-01-29T01:43:10.945Z,97772.53
2023-01-29T01:46:15.440Z,97773.06
2023-01-29T01:49:21.615Z,97765.00
2023-01-29T01:52:26.188Z,97768.97
2023-01-29T01:55:34.332Z,97777.53
2023-01-29T01:58:45.282Z,97767.31
2023-01-29T02:01:53.942Z,97713.06
2023-01-29T02:05:17.392Z,97773.25
2023-01-29T02:08:54.511Z,97777.84
2023-01-29T02:11:59.141Z,97772.78
2023-01-29T02:15:05.164Z,97770.84
2023-01-29T02:18:09.869Z,97773.47
2023-01-29T02:21:29.052Z,97769.28
2023-01-29T02:25:16.167Z,97761.09
2023-01-29T02:28:44.001Z,97767.78
2023-01-29T02:32:17.476Z,97773.78
2023-01-29T02:35:34.593Z,97778.78
2023-01-29T02:38:40.905Z,97791.78
2023-01-29T02:42:06.409Z,97784.34
2023-01-29T02:45:11.650Z,97775.97
2023-01-29T02:48:20.550Z,97776.22
2023-01-29T02:51:34.096Z,97782.44
2023-01-29T02:54:46.830Z,97781.34
2023-01-29T02:57:57.701Z,97781.56
2023-01-29T03:01:09.597Z,97774.09
2023-01-29T03:04:16.016Z,97769.59
2023-01-29T03:07:46.785Z,97769.34
2023-01-29T03:11:04.387Z,97778.47
2023-01-29T03:14:14.457Z,97769.19
2023-01-29T03:17:25.422Z,97763.34
2023-01-29T03:20:35.336Z,97775.69
2023-01-29T03:23:59.309Z,97778.19
2023-01-29T03:27:28.830Z,97782.41
2023-01-29T03:30:56.277Z,97783.38
2023-01-29T03:34:24.168Z,97781.69
2023-01-29T03:37:43.551Z,97792.81
2023-01-29T03:40:59.693Z,97788.22
2023-01-29T03:44:06.954Z,97796.41
2023-01-29T03:47:25.260Z,97794.56
2023-01-29T03:50:47.700Z,97789.38
2023-01-29T03:53:56.170Z,97795.16
2023-01-29T03:57:15.980Z,97783.00
2023-01-29T04:00:35.853Z,97783.75
2023-01-29T04:03:51.585Z,97784.09
2023-01-29T04:07:00.610Z,97790.22
2023-01-29T04:10:12.891Z,97765.41
2023-01-29T04:13:18.500Z,97798.75
2023-01-29T04:16:36.815Z,97798.63
2023-01-29T04:19:58.980Z,97794.03
2023-01-29T04:23:06.884Z,97802.19
2023-01-29T04:26:30.514Z,97795.97
2023-01-29T04:29:48.551Z,97795.28
2023-01-29T04:32:53.884Z,97797.44
2023-01-29T04:36:41.337Z,97798.84
2023-01-29T04:39:46.909Z,97786.28
2023-01-29T04:43:08.444Z,97785.56
2023-01-29T04:46:21.164Z,97789.47
2023-01-29T04:49:47.059Z,97776.66
2023-01-29T04:53:38.319Z,97765.13
2023-01-29T04:56:57.537Z,97775.75
2023-01-29T05:00:23.992Z,97778.22
2023-01-29T05:03:31.285Z,97786.72
2023-01-29T05:06:37.889Z,97777.16
2023-01-29T05:09:45.196Z,97784.34
2023-01-29T05:12:57.959Z,97783.78
2023-01-29T05:16:16.973Z,97779.13
2023-01-29T05:19:22.964Z,97784.34
2023-01-29T05:22:27.705Z,97782.22
2023-01-29T05:25:33.561Z,97793.94
2023-01-29T05:28:38.101Z,97792.63
2023-01-29T05:31:44.725Z,97793.75
2023-01-29T05:34:49.356Z,97805.34
2023-01-29T05:37:55.980Z,97804.34
2023-01-29T05:41:00.572Z,97795.16
2023-01-29T05:44:05.216Z,97800.81
2023-01-29T05:47:09.725Z,97810.47
2023-01-29T05:50:15.847Z,97803.63
2023-01-29T05:53:20.624Z,97800.97
2023-01-29T05:56:25.458Z,97805.94
2023-01-29T05:59:31.187Z,97797.94
2023-01-29T06:02:35.761Z,97798.34
2023-01-29T06:05:40.615Z,97804.25
2023-01-29T06:08:46.927Z,97798.84
2023-01-29T06:11:51.412Z,97803.75
2023-01-29T06:14:55.984Z,97807.56
2023-01-29T06:18:00.560Z,97810.00
2023-01-29T06:21:07.617Z,97810.88
2023-01-29T06:24:12.190Z,97820.16
2023-01-29T06:27:16.756Z,97809.84
2023-01-29T06:30:23.368Z,97770.94
2023-01-29T06:33:27.926Z,97810.94
2023-01-29T06:36:32.536Z,97813.69
2023-01-29T06:39:37.058Z,97810.94
2023-01-29T06:42:41.597Z,97813.59
2023-01-29T06:45:48.473Z,97807.44
2023-01-29T06:48:52.983Z,97813.44
2023-01-29T06:51:57.703Z,97806.72
2023-01-29T06:55:02.178Z,97808.13
2023-01-29T06:58:12.043Z,97807.19
2023-01-29T07:01:33.404Z,97798.00
2023-01-29T07:04:41.469Z,97797.88
2023-01-29T07:07:46.122Z,97801.25
2023-01-29T07:10:50.680Z,97795.88
2023-01-29T07:13:55.215Z,97799.47
2023-01-29T07:16:59.836Z,97797.72
2023-01-29T07:20:06.080Z,97794.97
2023-01-29T07:23:12.880Z,97789.78
2023-01-29T07:26:17.450Z,97783.25
2023-01-29T07:29:21.986Z,97779.56
2023-01-29T07:32:28.909Z,97779.66
2023-01-29T07:35:37.107Z,97784.31
2023-01-29T07:38:41.786Z,97785.56
2023-01-29T07:41:46.329Z,97801.97
2023-01-29T07:44:54.168Z,97795.63
2023-01-29T07:47:58.788Z,97796.19
2023-01-29T07:51:03.332Z,97804.94
2023-01-29T07:54:07.862Z,97753.56
2023-01-29T07:57:12.887Z,97786.19
2023-01-29T08:00:18.118Z,97803.06
2023-01-29T08:03:22.928Z,97809.81
2023-01-29T08:06:27.487Z,97800.84
2023-01-29T08:09:33.155Z,97762.41
2023-01-29T08:12:37.728Z,97810.84
2023-01-29T08:15:46.075Z,97823.72
2023-01-29T08:18:50.616Z,97825.19
2023-01-29T08:21:55.166Z,97835.97
2023-01-29T08:25:08.217Z,97839.47
2023-01-29T08:28:13.091Z,97841.25
2023-01-29T08:31:22.735Z,97849.00
2023-01-29T08:34:27.468Z,97851.53
2023-01-29T08:37:32.016Z,97855.59
2023-01-29T08:40:36.590Z,97847.69
2023-01-29T08:43:42.940Z,97857.63
2023-01-29T08:46:47.472Z,97857.97
2023-01-29T08:49:52.061Z,97855.91
2023-01-29T08:53:00.627Z,97868.75
2023-01-29T08:56:05.392Z,97883.19
2023-01-29T08:59:10.552Z,97874.38
2023-01-29T09:02:16.953Z,97875.44
2023-01-29T09:05:21.552Z,97869.25
2023-01-29T09:08:26.180Z,97857.03
2023-01-29T09:11:30.654Z,97861.81
2023-01-29T09:14:35.483Z,97857.44
2023-01-29T09:17:40.918Z,97868.09
2023-01-29T09:20:45.503Z,97872.50
2023-01-29T09:23:49.978Z,97888.28
2023-01-29T09:26:54.472Z,97877.34
2023-01-29T09:29:59.110Z,97881.00
2023-01-29T09:33:04.915Z,97872.84
2023-01-29T09:36:09.571Z,97875.75
2023-01-29T09:39:14.132Z,97883.34
2023-01-29T09:42:48.786Z,97884.53
2023-01-29T09:46:15.044Z,97893.84
2023-01-29T09:49:19.524Z,97887.03
2023-01-29T09:52:37.701Z,97880.47
2023-01-29T09:56:05.998Z,97873.16
2023-01-29T09:59:11.887Z,97881.72
2023-01-29T10:02:32.312Z,97874.88
2023-01-29T10:05:48.149Z,97861.91
2023-01-29T10:09:22.284Z,97865.53
2023-01-29T10:12:47.593Z,97865.81
2023-01-29T10:16:03.209Z,97864.53
2023-01-29T10:19:22.738Z,97854.88
2023-01-29T10:22:45.150Z,97852.81
2023-01-29T10:25:49.901Z,97846.13
2023-01-29T10:28:58.525Z,97807.34
2023-01-29T10:32:05.919Z,97825.25
2023-01-29T10:35:22.013Z,97822.97
2023-01-29T10:38:35.783Z,97814.72
2023-01-29T10:41:55.490Z,97811.66
2023-01-29T10:45:15.555Z,97801.22
2023-01-29T10:48:40.356Z,97798.22
2023-01-29T10:52:03.185Z,97794.94
2023-01-29T10:55:32.712Z,97802.28
2023-01-29T10:58:45.512Z,97802.59
2023-01-29T11:01:51.372Z,97805.50
2023-01-29T11:04:56.070Z,97807.94
2023-01-29T11:08:19.709Z,97819.06
2023-01-29T11:11:36.131Z,97821.25
2023-01-29T11:15:07.069Z,97813.25
2023-01-29T11:18:15.308Z,97807.66
2023-01-29T11:21:20.272Z,97793.34
2023-01-29T11:24:25.958Z,97787.72
2023-01-29T11:27:35.301Z,97774.41
2023-01-29T11:30:41.686Z,97770.47
2023-01-29T11:33:48.224Z,97763.28
2023-01-29T11:37:04.498Z,97770.09
2023-01-29T11:40:23.915Z,97751.78
2023-01-29T11:43:32.204Z,97745.78
2023-01-29T11:46:39.749Z,97739.13
2023-01-29T11:49:54.837Z,97728.56
2023-01-29T11:53:00.248Z,97731.84
2023-01-29T11:56:16.595Z,97723.66
2023-01-29T11:59:37.702Z,97702.81
2023-01-29T12:02:43.896Z,97719.25
2023-01-29T12:05:58.814Z,97725.34
2023-01-29T12:09:10.857Z,97707.50
2023-01-29T12:12:29.398Z,97718.94
2023-01-29T12:15:34.052Z,97717.03
2023-01-29T12:18:44.150Z,97715.34
2023-01-29T12:21:49.121Z,97720.00
2023-01-29T12:25:02.032Z,97714.66
2023-01-29T12:28:50.565Z,97710.41
2023-01-29T12:32:04.816Z,97706.03
2023-01-29T12:35:28.381Z,97702.84
2023-01-29T12:38:34.086Z,97665.09
2023-01-29T12:41:46.141Z,97694.63
2023-01-29T12:44:58.649Z,97688.34
2023-01-29T12:48:09.905Z,97680.94
2023-01-29T12:51:19.292Z,97674.84
2023-01-29T12:54:35.024Z,97659.28
2023-01-29T12:57:50.586Z,97654.06
2023-01-29T13:01:01.357Z,97637.91
2023-01-29T13:04:16.685Z,97591.13
2023-01-29T13:07:23.708Z,97655.16
2023-01-29T13:10:35.633Z,97640.13
2023-01-29T13:13:54.007Z,97655.03
2023-01-29T13:17:21.361Z,97664.03
2023-01-29T13:20:29.135Z,97663.25
2023-01-29T13:23:39.379Z,97663.34
2023-01-29T13:26:50.549Z,97644.72
2023-01-29T13:29:56.469Z,97649.88
2023-01-29T13:33:10.513Z,97648.38
2023-01-29T13:36:21.881Z,97653.78
2023-01-29T13:39:37.891Z,97650.03
2023-01-29T13:42:50.335Z,97648.75
2023-01-29T13:45:55.007Z,97646.03
2023-01-29T13:49:04.870Z,97601.03
2023-01-29T13:52:10.879Z,97640.03
2023-01-29T13:55:15.684Z,97637.03
2023-01-29T13:58:32.256Z,97645.63
2023-01-29T14:01:48.951Z,97637.16
2023-01-29T14:05:30.521Z,97628.84
2023-01-29T14:08:35.139Z,97629.06
2023-01-29T14:11:48.312Z,97629.66
2023-01-29T14:14:56.549Z,97627.19
2023-01-29T14:18:25.161Z,97630.88
2023-01-29T14:21:32.780Z,97627.69
2023-01-29T14:24:37.400Z,97625.72
2023-01-29T14:27:47.494Z,97604.31
2023-01-29T14:30:52.571Z,97617.34
2023-01-29T14:34:02.358Z,97614.94
2023-01-29T14:37:15.867Z,97625.53
2023-01-29T14:40:25.812Z,97621.50
2023-01-29T14:43:30.406Z,97626.31
2023-01-29T14:46:35.264Z,97625.31
2023-01-29T14:49:50.934Z,97622.84
2023-01-29T14:53:22.954Z,97618.97
2023-01-29T14:56:32.546Z,97625.44
2023-01-29T14:59:47.204Z,97611.09
2023-01-29T15:03:01.321Z,97613.53
2023-01-29T15:06:09.751Z,97615.69
2023-01-29T15:09:42.940Z,97618.00
2023-01-29T15:12:56.356Z,97611.91
2023-01-29T15:16:15.967Z,97607.13
2023-01-29T15:19:29.771Z,97606.88
2023-01-29T15:22:42.709Z,97597.06
2023-01-29T15:25:48.491Z,97615.94
2023-01-29T15:29:04.140Z,97621.69
2023-01-29T15:32:16.916Z,97616.34
2023-01-29T15:35:34.175Z,97619.31
2023-01-29T15:38:38.660Z,97617.16
2023-01-29T15:41:43.973Z,97612.97
2023-01-29T15:44:48.523Z,97615.59
2023-01-29T15:48:01.728Z,97617.28
2023-01-29T15:51:07.342Z,97607.34
2023-01-29T15:54:16.059Z,97609.78
2023-01-29T15:57:25.558Z,97603.69
2023-01-29T16:00:33.374Z,97548.38
2023-01-29T16:03:38.225Z,97605.13
2023-01-29T16:06:43.524Z,97599.72
2023-01-29T16:09:49.255Z,97600.47
2023-01-29T16:12:54.435Z,97590.63
2023-01-29T16:16:23.805Z,97599.94
2023-01-29T16:19:29.479Z,97608.13
2023-01-29T16:22:36.865Z,97613.47
2023-01-29T16:25:41.452Z,97613.34
2023-01-29T16:28:46.934Z,97607.63
2023-01-29T16:31:53.082Z,97606.00
2023-01-29T16:34:59.953Z,97610.31
2023-01-29T16:38:23.325Z,97611.34
2023-01-29T16:41:30.907Z,97619.06
2023-01-29T16:44:37.478Z,97620.59
2023-01-29T16:47:42.051Z,97632.03
2023-01-29T16:50:55.055Z,97630.03
2023-01-29T16:54:18.209Z,97595.63
2023-01-29T16:57:25.861Z,97625.94
2023-01-29T17:00:31.470Z,97631.81
2023-01-29T17:03:37.267Z,97631.56
2023-01-29T17:06:46.882Z,97626.75
2023-01-29T17:09:55.638Z,97625.75
2023-01-29T17:13:14.805Z,97631.78
2023-01-29T17:16:19.315Z,97631.06
2023-01-29T17:19:25.277Z,97629.28
2023-01-29T17:22:30.923Z,97633.22
2023-01-29T17:25:35.729Z,97629.69
2023-01-29T17:28:44.467Z,97621.50
2023-01-29T17:31:49.100Z,97627.03
2023-01-29T17:34:53.577Z,97621.88
2023-01-29T17:37:58.421Z,97615.09
2023-01-29T17:41:05.114Z,97622.44
2023-01-29T17:44:09.765Z,97626.59
2023-01-29T17:47:15.362Z,97621.25
2023-01-29T17:50:24.540Z,97631.38
2023-01-29T17:53:44.215Z,97625.25
2023-01-29T17:56:50.389Z,97630.25
2023-01-29T17:59:54.904Z,97629.16
2023-01-29T18:03:02.365Z,97632.72
2023-01-29T18:06:09.004Z,97631.81
2023-01-29T18:09:15.676Z,97636.56
2023-01-29T18:12:20.210Z,97641.66
2023-01-29T18:15:24.746Z,97635.44
2023-01-29T18:18:30.092Z,97633.16
2023-01-29T18:21:34.657Z,97633.03
2023-01-29T18:24:39.232Z,97634.13
2023-01-29T18:27:46.249Z,97605.38
2023-01-29T18:30:50.968Z,97633.34
2023-01-29T18:33:55.483Z,97626.19
2023-01-29T18:37:00.268Z,97621.06
2023-01-29T18:40:05.830Z,97625.38
2023-01-29T18:43:10.315Z,97617.81
2023-01-29T18:46:14.928Z,97621.00
2023-01-29T18:49:20.885Z,97609.19
2023-01-29T18:52:26.168Z,97612.03
2023-01-29T18:55:30.704Z,97617.56
2023-01-29T18:58:36.656Z,97611.03
2023-01-29T19:01:41.498Z,97621.44
2023-01-29T19:04:46.694Z,97594.59
2023-01-29T19:07:52.120Z,97611.53
2023-01-29T19:10:57.734Z,97612.56
2023-01-29T19:14:02.345Z,97606.38
2023-01-29T19:17:07.207Z,97594.81
2023-01-29T19:20:12.252Z,97614.06
2023-01-29T19:23:16.757Z,97610.41
2023-01-29T19:26:21.403Z,97604.50
2023-01-29T19:29:25.961Z,97613.06
2023-01-29T19:32:30.524Z,97605.34
2023-01-29T19:35:35.056Z,97608.28
2023-01-29T19:38:39.830Z,97616.59
2023-01-29T19:41:44.399Z,97616.72
2023-01-29T19:44:50.588Z,97613.06
2023-01-29T19:47:55.143Z,97620.16
2023-01-29T19:51:05.150Z,97605.38
2023-01-29T19:54:09.927Z,97604.13
2023-01-29T19:57:14.394Z,97609.31
2023-01-29T20:00:19.625Z,97607.47
2023-01-29T20:03:24.828Z,97589.34
2023-01-29T20:06:33.144Z,97602.56
2023-01-29T20:09:37.683Z,97602.25
2023-01-29T20:12:44.744Z,97607.25
2023-01-29T20:15:50.662Z,97602.19
2023-01-29T20:18:55.256Z,97601.94
2023-01-29T20:22:19.242Z,97594.88
2023-01-29T20:25:23.776Z,97603.78
2023-01-29T20:28:28.397Z,97590.34
2023-01-29T20:31:34.178Z,97556.47
2023-01-29T20:34:38.670Z,97586.28
2023-01-29T20:37:43.188Z,97592.41
2023-01-29T20:40:47.683Z,97590.88
2023-01-29T20:43:52.235Z,97586.34
2023-01-29T20:47:01.705Z,97589.28
2023-01-29T20:50:10.586Z,97573.31
2023-01-29T20:53:15.064Z,97589.00
2023-01-29T20:56:23.108Z,97584.41
2023-01-29T20:59:38.758Z,97583.13
2023-01-29T21:02:45.676Z,97579.47
2023-01-29T21:05:51.490Z,97584.09
2023-01-29T21:08:56.049Z,97582.00
2023-01-29T21:12:00.553Z,97572.66
2023-01-29T21:15:05.432Z,97574.97
2023-01-29T21:18:10.454Z,97571.59
2023-01-29T21:21:16.076Z,97548.31
2023-01-29T21:24:20.573Z,97569.25
2023-01-29T21:27:25.593Z,97567.34
2023-01-29T21:30:30.363Z,97561.00
2023-01-29T21:33:35.077Z,97562.34
2023-01-29T21:36:39.668Z,97563.25
2023-01-29T21:39:44.340Z,97557.81
2023-01-29T21:43:07.368Z,97550.81
2023-01-29T21:46:12.246Z,97556.13
2023-01-29T21:49:16.998Z,97553.19
2023-01-29T21:52:21.527Z,97554.00
2023-01-29T21:55:26.040Z,97545.50
2023-01-29T21:58:32.816Z,97548.72
2023-01-29T22:01:38.887Z,97540.00
2023-01-29T22:04:43.670Z,97533.88
2023-01-29T22:07:49.626Z,97531.44
2023-01-29T22:10:54.380Z,97535.19
2023-01-29T22:13:59.365Z,97532.88
2023-01-29T22:17:04.011Z,97530.75
2023-01-29T22:20:13.469Z,97519.84
2023-01-29T22:23:18.082Z,97523.94
2023-01-29T22:26:22.663Z,97521.00
2023-01-29T22:29:27.147Z,97505.28
2023-01-29T22:32:32.564Z,97514.97
2023-01-29T22:35:37.315Z,97508.38
2023-01-29T22:38:42.925Z,97508.38
2023-01-29T22:41:47.965Z,97508.38
2023-01-29T22:44:52.461Z,97503.91
2023-01-29T22:47:58.094Z,97447.47
2023-01-29T22:51:11.826Z,97494.34
2023-01-29T22:54:16.470Z,97495.88
2023-01-29T22:57:21.253Z,97494.16
2023-01-29T23:00:26.064Z,97476.44
2023-01-29T23:03:31.919Z,97484.03
2023-01-29T23:06:36.405Z,97477.84
2023-01-29T23:09:40.996Z,97482.97
2023-01-29T23:12:45.497Z,97481.00
2023-01-29T23:15:59.300Z,97486.81
2023-01-29T23:19:03.883Z,97469.56
2023-01-29T23:22:08.393Z,97472.03
2023-01-29T23:25:13.071Z,97462.13
2023-01-29T23:28:18.864Z,97471.69
2023-01-29T23:31:23.492Z,97462.91
2023-01-29T23:34:28.023Z,97459.16
2023-01-29T23:37:32.558Z,97460.03
2023-01-29T23:40:37.146Z,97442.94
2023-01-29T23:43:41.721Z,97421.22
2023-01-29T23:46:46.397Z,97443.25
2023-01-29T23:49:52.699Z,97435.53
2023-01-29T23:52:57.316Z,97430.47
2023-01-29T23:56:04.295Z,97426.31
2023-01-29T23:59:08.832Z,97427.69
